sensor_id;sensor_type;location;lat;lon;timestamp;pressure;altitude;pressure_sealevel;temperature;humidity
55171;BME280;41060;47.510;8.680;2023-02-15T00:01:32;98410.13;;;3.70;56.93
55171;BME280;41060;47.510;8.680;2023-02-15T00:03:59;98445.03;;;3.98;57.26
55171;BME280;41060;47.510;8.680;2023-02-15T00:06:26;98442.06;;;3.81;57.00
55171;BME280;41060;47.510;8.680;2023-02-15T00:08:55;98432.19;;;3.63;56.86
55171;BME280;41060;47.510;8.680;2023-02-15T00:11:21;98441.09;;;3.57;57.95
55171;BME280;41060;47.510;8.680;2023-02-15T00:14:03;98385.72;;;3.11;58.57
55171;BME280;41060;47.510;8.680;2023-02-15T00:16:32;98441.41;;;3.47;57.79
55171;BME280;41060;47.510;8.680;2023-02-15T00:18:59;98440.84;;;3.65;58.44
55171;BME280;41060;47.510;8.680;2023-02-15T00:21:28;98445.81;;;3.72;57.68
55171;BME280;41060;47.510;8.680;2023-02-15T00:23:57;98429.69;;;3.86;56.99
55171;BME280;41060;47.510;8.680;2023-02-15T00:26:24;98436.91;;;4.06;56.88
55171;BME280;41060;47.510;8.680;2023-02-15T00:28:52;98439.38;;;4.10;56.22
55171;BME280;41060;47.510;8.680;2023-02-15T00:31:19;98445.59;;;4.08;55.86
55171;BME280;41060;47.510;8.680;2023-02-15T00:33:46;98443.66;;;4.13;56.22
55171;BME280;41060;47.510;8.680;2023-02-15T00:36:13;98444.16;;;3.98;56.79
55171;BME280;41060;47.510;8.680;2023-02-15T00:38:40;98410.72;;;3.50;57.20
55171;BME280;41060;47.510;8.680;2023-02-15T00:41:09;98443.56;;;3.62;57.01
55171;BME280;41060;47.510;8.680;2023-02-15T00:43:36;98446.44;;;3.53;58.00
55171;BME280;41060;47.510;8.680;2023-02-15T00:46:04;98442.00;;;3.56;58.06
55171;BME280;41060;47.510;8.680;2023-02-15T00:48:30;98447.13;;;3.59;57.63
55171;BME280;41060;47.510;8.680;2023-02-15T00:50:59;98453.22;;;3.60;57.52
55171;BME280;41060;47.510;8.680;2023-02-15T00:53:26;98418.88;;;3.41;57.29
55171;BME280;41060;47.510;8.680;2023-02-15T00:55:53;98447.53;;;3.46;57.88
55171;BME280;41060;47.510;8.680;2023-02-15T00:58:21;98432.91;;;3.39;57.85
55171;BME280;41060;47.510;8.680;2023-02-15T01:00:48;98333.94;;;2.92;57.61
55171;BME280;41060;47.510;8.680;2023-02-15T01:03:16;98395.63;;;3.29;57.44
55171;BME280;41060;47.510;8.680;2023-02-15T01:05:43;98443.41;;;3.66;56.98
55171;BME280;41060;47.510;8.680;2023-02-15T01:08:10;98444.06;;;3.73;57.33
55171;BME280;41060;47.510;8.680;2023-02-15T01:10:36;98442.38;;;3.72;56.64
55171;BME280;41060;47.510;8.680;2023-02-15T01:13:03;98443.16;;;3.46;57.14
55171;BME280;41060;47.510;8.680;2023-02-15T01:15:35;98427.19;;;3.24;57.56
55171;BME280;41060;47.510;8.680;2023-02-15T01:18:02;98448.34;;;3.48;57.28
55171;BME280;41060;47.510;8.680;2023-02-15T01:20:34;98442.53;;;3.38;57.23
55171;BME280;41060;47.510;8.680;2023-02-15T01:23:01;98392.91;;;3.04;58.10
55171;BME280;41060;47.510;8.680;2023-02-15T01:25:29;98389.69;;;2.64;57.68
55171;BME280;41060;47.510;8.680;2023-02-15T01:27:55;98445.91;;;3.12;58.38
55171;BME280;41060;47.510;8.680;2023-02-15T01:30:22;98444.97;;;3.13;58.48
55171;BME280;41060;47.510;8.680;2023-02-15T01:32:50;98446.91;;;3.36;57.83
55171;BME280;41060;47.510;8.680;2023-02-15T01:35:17;98444.28;;;3.38;58.08
55171;BME280;41060;47.510;8.680;2023-02-15T01:37:43;98441.00;;;3.29;58.09
55171;BME280;41060;47.510;8.680;2023-02-15T01:40:13;98392.56;;;3.15;58.16
55171;BME280;41060;47.510;8.680;2023-02-15T01:42:40;98439.88;;;3.40;58.09
55171;BME280;41060;47.510;8.680;2023-02-15T01:45:19;98431.00;;;3.44;58.14
55171;BME280;41060;47.510;8.680;2023-02-15T01:47:51;98425.25;;;3.60;57.44
55171;BME280;41060;47.510;8.680;2023-02-15T01:50:22;98403.41;;;3.61;56.69
55171;BME280;41060;47.510;8.680;2023-02-15T01:52:53;98424.56;;;3.55;57.40
55171;BME280;41060;47.510;8.680;2023-02-15T01:55:22;98388.72;;;3.28;57.88
55171;BME280;41060;47.510;8.680;2023-02-15T01:57:50;98419.56;;;3.48;57.46
55171;BME280;41060;47.510;8.680;2023-02-15T02:00:18;98424.22;;;3.66;56.96
55171;BME280;41060;47.510;8.680;2023-02-15T02:02:48;98414.09;;;3.82;56.58
55171;BME280;41060;47.510;8.680;2023-02-15T02:05:18;98359.91;;;3.57;56.01
55171;BME280;41060;47.510;8.680;2023-02-15T02:07:45;98420.53;;;3.99;55.19
55171;BME280;41060;47.510;8.680;2023-02-15T02:10:16;98417.66;;;4.07;55.28
55171;BME280;41060;47.510;8.680;2023-02-15T02:12:45;98419.88;;;4.19;55.36
55171;BME280;41060;47.510;8.680;2023-02-15T02:15:12;98416.38;;;4.19;55.21
55171;BME280;41060;47.510;8.680;2023-02-15T02:17:47;98407.06;;;4.10;54.85
55171;BME280;41060;47.510;8.680;2023-02-15T02:20:30;98414.66;;;4.18;55.24
55171;BME280;41060;47.510;8.680;2023-02-15T02:26:27;98398.94;;;4.18;54.85
55171;BME280;41060;47.510;8.680;2023-02-15T02:35:23;98413.44;;;3.75;55.28
55171;BME280;41060;47.510;8.680;2023-02-15T02:37:54;98410.63;;;3.81;55.16
55171;BME280;41060;47.510;8.680;2023-02-15T02:40:32;98415.59;;;3.90;54.86
55171;BME280;41060;47.510;8.680;2023-02-15T02:43:10;98415.28;;;3.99;54.71
55171;BME280;41060;47.510;8.680;2023-02-15T02:45:43;98414.13;;;4.08;54.21
55171;BME280;41060;47.510;8.680;2023-02-15T02:48:15;98407.22;;;4.05;54.69
55171;BME280;41060;47.510;8.680;2023-02-15T02:50:46;98414.88;;;4.11;54.44
55171;BME280;41060;47.510;8.680;2023-02-15T02:53:13;98412.16;;;4.15;54.04
55171;BME280;41060;47.510;8.680;2023-02-15T02:55:45;98363.28;;;3.87;54.41
55171;BME280;41060;47.510;8.680;2023-02-15T02:58:15;98412.00;;;4.19;53.98
55171;BME280;41060;47.510;8.680;2023-02-15T03:00:48;98414.53;;;4.22;54.28
55171;BME280;41060;47.510;8.680;2023-02-15T03:03:20;98415.88;;;3.81;54.76
55171;BME280;41060;47.510;8.680;2023-02-15T03:05:54;98400.38;;;3.73;55.05
55171;BME280;41060;47.510;8.680;2023-02-15T03:08:27;98417.31;;;3.91;54.68
55171;BME280;41060;47.510;8.680;2023-02-15T03:11:00;98413.63;;;3.97;54.40
55171;BME280;41060;47.510;8.680;2023-02-15T03:13:28;98415.25;;;4.01;54.90
55171;BME280;41060;47.510;8.680;2023-02-15T03:15:55;98371.53;;;3.75;54.28
55171;BME280;41060;47.510;8.680;2023-02-15T03:18:44;98411.84;;;3.97;54.46
55171;BME280;41060;47.510;8.680;2023-02-15T03:21:20;98415.03;;;4.07;54.95
55171;BME280;41060;47.510;8.680;2023-02-15T03:23:52;98354.28;;;3.68;54.49
55171;BME280;41060;47.510;8.680;2023-02-15T03:26:21;98421.16;;;4.07;54.29
55171;BME280;41060;47.510;8.680;2023-02-15T03:28:50;98419.50;;;4.03;54.17
55171;BME280;41060;47.510;8.680;2023-02-15T03:31:20;98409.22;;;3.97;54.74
55171;BME280;41060;47.510;8.680;2023-02-15T03:33:51;98411.25;;;3.89;55.34
55171;BME280;41060;47.510;8.680;2023-02-15T03:36:23;98405.25;;;3.86;54.59
55171;BME280;41060;47.510;8.680;2023-02-15T03:38:57;98412.72;;;3.98;54.62
55171;BME280;41060;47.510;8.680;2023-02-15T03:41:27;98416.09;;;4.01;54.49
55171;BME280;41060;47.510;8.680;2023-02-15T03:43:58;98418.72;;;4.01;54.42
55171;BME280;41060;47.510;8.680;2023-02-15T03:46:30;98418.16;;;3.92;54.49
55171;BME280;41060;47.510;8.680;2023-02-15T03:49:02;98423.44;;;3.90;54.87
55171;BME280;41060;47.510;8.680;2023-02-15T03:51:35;98422.94;;;3.79;54.88
55171;BME280;41060;47.510;8.680;2023-02-15T03:54:06;98425.22;;;3.62;55.34
55171;BME280;41060;47.510;8.680;2023-02-15T03:56:40;98416.13;;;3.46;55.91
55171;BME280;41060;47.510;8.680;2023-02-15T03:59:07;98423.16;;;3.44;55.94
55171;BME280;41060;47.510;8.680;2023-02-15T04:01:59;98422.22;;;3.15;56.98
55171;BME280;41060;47.510;8.680;2023-02-15T04:04:34;98425.53;;;2.91;57.34
55171;BME280;41060;47.510;8.680;2023-02-15T04:07:05;98421.94;;;2.95;57.55
55171;BME280;41060;47.510;8.680;2023-02-15T04:09:31;98422.59;;;2.72;57.59
55171;BME280;41060;47.510;8.680;2023-02-15T04:12:17;98429.13;;;2.88;57.18
55171;BME280;41060;47.510;8.680;2023-02-15T04:14:43;98431.34;;;3.02;57.62
55171;BME280;41060;47.510;8.680;2023-02-15T04:17:28;98415.06;;;3.22;56.45
55171;BME280;41060;47.510;8.680;2023-02-15T04:19:54;98428.03;;;3.26;56.87
55171;BME280;41060;47.510;8.680;2023-02-15T04:22:41;98424.81;;;3.17;56.22
55171;BME280;41060;47.510;8.680;2023-02-15T04:25:25;98401.56;;;3.06;56.62
55171;BME280;41060;47.510;8.680;2023-02-15T04:27:57;98420.44;;;2.86;56.52
55171;BME280;41060;47.510;8.680;2023-02-15T04:30:25;98415.19;;;2.88;57.51
55171;BME280;41060;47.510;8.680;2023-02-15T04:32:53;98421.53;;;2.79;57.37
55171;BME280;41060;47.510;8.680;2023-02-15T04:35:20;98423.25;;;2.80;57.83
55171;BME280;41060;47.510;8.680;2023-02-15T04:37:48;98425.91;;;2.79;58.07
55171;BME280;41060;47.510;8.680;2023-02-15T04:40:16;98404.25;;;2.74;58.20
55171;BME280;41060;47.510;8.680;2023-02-15T04:42:43;98417.59;;;2.95;57.48
55171;BME280;41060;47.510;8.680;2023-02-15T04:45:09;98401.06;;;2.93;57.54
55171;BME280;41060;47.510;8.680;2023-02-15T04:47:37;98382.59;;;2.69;57.59
55171;BME280;41060;47.510;8.680;2023-02-15T04:50:04;98416.72;;;2.95;57.28
55171;BME280;41060;47.510;8.680;2023-02-15T04:52:31;98433.84;;;2.76;57.27
55171;BME280;41060;47.510;8.680;2023-02-15T04:54:59;98416.31;;;2.78;57.72
55171;BME280;41060;47.510;8.680;2023-02-15T04:57:26;98412.56;;;2.88;57.28
55171;BME280;41060;47.510;8.680;2023-02-15T04:59:52;98417.47;;;2.98;57.55
55171;BME280;41060;47.510;8.680;2023-02-15T05:02:19;98330.38;;;2.35;57.79
55171;BME280;41060;47.510;8.680;2023-02-15T05:04:46;98419.94;;;3.05;57.25
55171;BME280;41060;47.510;8.680;2023-02-15T05:07:13;98421.78;;;3.01;56.93
55171;BME280;41060;47.510;8.680;2023-02-15T05:09:40;98415.78;;;2.97;56.97
55171;BME280;41060;47.510;8.680;2023-02-15T05:12:08;98418.94;;;2.78;57.10
55171;BME280;41060;47.510;8.680;2023-02-15T05:14:34;98414.09;;;2.64;57.57
55171;BME280;41060;47.510;8.680;2023-02-15T05:17:02;98412.75;;;2.49;58.31
55171;BME280;41060;47.510;8.680;2023-02-15T05:19:30;98414.13;;;2.63;58.12
55171;BME280;41060;47.510;8.680;2023-02-15T05:21:57;98409.94;;;2.57;58.06
55171;BME280;41060;47.510;8.680;2023-02-15T05:24:24;98408.03;;;2.62;57.72
55171;BME280;41060;47.510;8.680;2023-02-15T05:27:11;98410.72;;;2.61;57.83
55171;BME280;41060;47.510;8.680;2023-02-15T05:29:56;98408.31;;;2.53;57.98
55171;BME280;41060;47.510;8.680;2023-02-15T05:32:22;98386.78;;;2.43;57.09
55171;BME280;41060;47.510;8.680;2023-02-15T05:34:49;98410.81;;;2.56;57.79
55171;BME280;41060;47.510;8.680;2023-02-15T05:37:19;98369.53;;;2.36;57.28
55171;BME280;41060;47.510;8.680;2023-02-15T05:39:45;98400.75;;;2.42;57.70
55171;BME280;41060;47.510;8.680;2023-02-15T05:42:13;98417.97;;;2.49;57.58
55171;BME280;41060;47.510;8.680;2023-02-15T05:44:40;98417.13;;;2.49;56.97
55171;BME280;41060;47.510;8.680;2023-02-15T05:47:07;98411.31;;;2.70;57.55
55171;BME280;41060;47.510;8.680;2023-02-15T05:49:33;98413.50;;;2.85;56.60
55171;BME280;41060;47.510;8.680;2023-02-15T05:52:01;98413.22;;;2.96;55.91
55171;BME280;41060;47.510;8.680;2023-02-15T05:54:27;98419.56;;;2.87;55.54
55171;BME280;41060;47.510;8.680;2023-02-15T05:56:54;98413.44;;;2.56;56.85
55171;BME280;41060;47.510;8.680;2023-02-15T05:59:23;98420.31;;;2.60;56.83
55171;BME280;41060;47.510;8.680;2023-02-15T06:01:49;98428.19;;;2.58;56.42
55171;BME280;41060;47.510;8.680;2023-02-15T06:04:16;98319.72;;;1.77;56.30
55171;BME280;41060;47.510;8.680;2023-02-15T06:06:43;98435.09;;;2.29;56.90
55171;BME280;41060;47.510;8.680;2023-02-15T06:09:10;98434.34;;;2.24;57.46
55171;BME280;41060;47.510;8.680;2023-02-15T06:11:37;98444.91;;;2.19;57.68
55171;BME280;41060;47.510;8.680;2023-02-15T06:14:04;98421.41;;;2.17;57.26
55171;BME280;41060;47.510;8.680;2023-02-15T06:16:32;98432.00;;;2.13;57.34
55171;BME280;41060;47.510;8.680;2023-02-15T06:18:58;98433.06;;;2.06;57.96
55171;BME280;41060;47.510;8.680;2023-02-15T06:21:27;98420.66;;;2.14;57.52
55171;BME280;41060;47.510;8.680;2023-02-15T06:23:54;98436.44;;;2.09;57.74
55171;BME280;41060;47.510;8.680;2023-02-15T06:26:20;98443.06;;;2.24;57.25
55171;BME280;41060;47.510;8.680;2023-02-15T06:28:47;98359.91;;;1.72;56.80
55171;BME280;41060;47.510;8.680;2023-02-15T06:31:14;98457.59;;;1.99;57.84
55171;BME280;41060;47.510;8.680;2023-02-15T06:33:42;98454.97;;;2.00;58.37
55171;BME280;41060;47.510;8.680;2023-02-15T06:36:09;98436.72;;;1.99;57.11
55171;BME280;41060;47.510;8.680;2023-02-15T06:38:35;98453.81;;;2.10;57.83
55171;BME280;41060;47.510;8.680;2023-02-15T06:41:02;98450.34;;;2.10;57.05
55171;BME280;41060;47.510;8.680;2023-02-15T06:43:29;98452.13;;;2.43;56.43
55171;BME280;41060;47.510;8.680;2023-02-15T06:45:55;98458.47;;;2.67;56.35
55171;BME280;41060;47.510;8.680;2023-02-15T06:48:22;98442.75;;;2.69;55.53
55171;BME280;41060;47.510;8.680;2023-02-15T06:50:50;98463.38;;;2.79;54.71
55171;BME280;41060;47.510;8.680;2023-02-15T06:53:17;98457.03;;;2.88;55.10
55171;BME280;41060;47.510;8.680;2023-02-15T06:55:43;98453.34;;;2.95;54.67
55171;BME280;41060;47.510;8.680;2023-02-15T06:58:10;98457.44;;;3.05;54.53
55171;BME280;41060;47.510;8.680;2023-02-15T07:00:37;98461.41;;;2.87;54.61
55171;BME280;41060;47.510;8.680;2023-02-15T07:03:03;98451.69;;;2.60;54.96
55171;BME280;41060;47.510;8.680;2023-02-15T07:05:33;98466.75;;;2.50;56.04
55171;BME280;41060;47.510;8.680;2023-02-15T07:08:01;98413.38;;;1.91;56.49
55171;BME280;41060;47.510;8.680;2023-02-15T07:10:31;98465.75;;;2.22;56.72
55171;BME280;41060;47.510;8.680;2023-02-15T07:12:58;98468.22;;;2.28;56.16
55171;BME280;41060;47.510;8.680;2023-02-15T07:15:24;98472.38;;;2.35;56.00
55171;BME280;41060;47.510;8.680;2023-02-15T07:17:50;98471.81;;;2.24;56.38
55171;BME280;41060;47.510;8.680;2023-02-15T07:20:19;98448.41;;;1.83;57.09
55171;BME280;41060;47.510;8.680;2023-02-15T07:22:47;98456.72;;;2.00;60.42
55171;BME280;41060;47.510;8.680;2023-02-15T07:25:15;98416.31;;;1.79;58.95
55171;BME280;41060;47.510;8.680;2023-02-15T07:27:43;98460.28;;;1.96;57.80
55171;BME280;41060;47.510;8.680;2023-02-15T07:30:11;98460.44;;;2.25;57.81
55171;BME280;41060;47.510;8.680;2023-02-15T07:32:40;98459.06;;;2.46;57.17
55171;BME280;41060;47.510;8.680;2023-02-15T07:35:22;98463.81;;;2.30;56.05
55171;BME280;41060;47.510;8.680;2023-02-15T07:37:48;98464.09;;;2.18;57.55
55171;BME280;41060;47.510;8.680;2023-02-15T07:40:16;98373.41;;;1.52;56.91
55171;BME280;41060;47.510;8.680;2023-02-15T07:42:43;98451.03;;;2.18;57.08
55171;BME280;41060;47.510;8.680;2023-02-15T07:45:10;98458.88;;;2.18;57.32
55171;BME280;41060;47.510;8.680;2023-02-15T07:47:36;98456.75;;;2.32;56.70
55171;BME280;41060;47.510;8.680;2023-02-15T07:50:05;98458.00;;;2.17;56.31
55171;BME280;41060;47.510;8.680;2023-02-15T07:52:34;98443.69;;;1.98;56.37
55171;BME280;41060;47.510;8.680;2023-02-15T07:55:00;98456.34;;;2.15;56.81
55171;BME280;41060;47.510;8.680;2023-02-15T07:57:29;98455.00;;;2.33;56.14
55171;BME280;41060;47.510;8.680;2023-02-15T07:59:56;98460.59;;;2.53;55.36
55171;BME280;41060;47.510;8.680;2023-02-15T08:02:22;98448.78;;;2.38;55.40
55171;BME280;41060;47.510;8.680;2023-02-15T08:04:49;98462.91;;;2.31;55.89
55171;BME280;41060;47.510;8.680;2023-02-15T08:07:16;98453.81;;;2.46;55.23
55171;BME280;41060;47.510;8.680;2023-02-15T08:09:44;98456.38;;;2.47;55.44
55171;BME280;41060;47.510;8.680;2023-02-15T08:12:11;98386.47;;;1.88;56.04
55171;BME280;41060;47.510;8.680;2023-02-15T08:14:39;98401.31;;;1.87;56.41
55171;BME280;41060;47.510;8.680;2023-02-15T08:17:05;98362.19;;;1.49;56.50
55171;BME280;41060;47.510;8.680;2023-02-15T08:19:33;98446.50;;;1.89;56.84
55171;BME280;41060;47.510;8.680;2023-02-15T08:22:01;98440.06;;;2.04;56.96
55171;BME280;41060;47.510;8.680;2023-02-15T08:24:29;98453.47;;;1.90;57.28
55171;BME280;41060;47.510;8.680;2023-02-15T08:26:57;98451.91;;;1.82;57.30
55171;BME280;41060;47.510;8.680;2023-02-15T08:29:26;98443.03;;;1.89;57.45
55171;BME280;41060;47.510;8.680;2023-02-15T08:31:55;98438.50;;;1.97;57.15
55171;BME280;41060;47.510;8.680;2023-02-15T08:34:24;98407.81;;;1.69;56.71
55171;BME280;41060;47.510;8.680;2023-02-15T08:36:51;98442.34;;;1.80;57.52
55171;BME280;41060;47.510;8.680;2023-02-15T08:39:17;98445.09;;;1.76;57.91
55171;BME280;41060;47.510;8.680;2023-02-15T08:41:46;98393.41;;;1.53;57.54
55171;BME280;41060;47.510;8.680;2023-02-15T08:44:14;98436.53;;;2.06;57.12
55171;BME280;41060;47.510;8.680;2023-02-15T08:46:42;98441.94;;;2.33;56.41
55171;BME280;41060;47.510;8.680;2023-02-15T08:49:13;98441.63;;;2.46;55.56
55171;BME280;41060;47.510;8.680;2023-02-15T08:51:39;98443.88;;;2.58;54.77
55171;BME280;41060;47.510;8.680;2023-02-15T08:54:08;98417.44;;;2.69;54.47
55171;BME280;41060;47.510;8.680;2023-02-15T08:56:37;98436.75;;;2.96;54.36
55171;BME280;41060;47.510;8.680;2023-02-15T08:59:06;98427.66;;;3.09;53.47
55171;BME280;41060;47.510;8.680;2023-02-15T09:01:34;98431.06;;;3.13;53.91
55171;BME280;41060;47.510;8.680;2023-02-15T09:04:03;98425.31;;;2.98;53.75
55171;BME280;41060;47.510;8.680;2023-02-15T09:06:36;98431.16;;;3.08;53.22
55171;BME280;41060;47.510;8.680;2023-02-15T09:09:04;98431.16;;;3.08;54.64
55171;BME280;41060;47.510;8.680;2023-02-15T09:11:33;98431.72;;;3.19;53.89
55171;BME280;41060;47.510;8.680;2023-02-15T09:14:02;98412.03;;;3.06;53.54
55171;BME280;41060;47.510;8.680;2023-02-15T09:16:31;98427.88;;;3.31;53.27
55171;BME280;41060;47.510;8.680;2023-02-15T09:18:58;98430.31;;;3.37;51.83
55171;BME280;41060;47.510;8.680;2023-02-15T09:21:26;98435.19;;;3.20;52.95
55171;BME280;41060;47.510;8.680;2023-02-15T09:24:00;98433.22;;;3.28;53.44
55171;BME280;41060;47.510;8.680;2023-02-15T09:26:31;98433.16;;;3.29;53.36
55171;BME280;41060;47.510;8.680;2023-02-15T09:29:00;98432.34;;;2.98;53.69
55171;BME280;41060;47.510;8.680;2023-02-15T09:31:30;98416.84;;;2.60;54.47
55171;BME280;41060;47.510;8.680;2023-02-15T09:33:58;98430.56;;;2.68;55.17
55171;BME280;41060;47.510;8.680;2023-02-15T09:36:28;98433.47;;;2.57;55.51
55171;BME280;41060;47.510;8.680;2023-02-15T09:38:58;98417.13;;;2.49;56.20
55171;BME280;41060;47.510;8.680;2023-02-15T09:41:36;98402.03;;;2.26;56.14
55171;BME280;41060;47.510;8.680;2023-02-15T09:44:17;98411.72;;;2.55;55.54
55171;BME280;41060;47.510;8.680;2023-02-15T09:46:59;98407.97;;;2.65;55.07
55171;BME280;41060;47.510;8.680;2023-02-15T09:49:37;98417.41;;;2.71;55.90
55171;BME280;41060;47.510;8.680;2023-02-15T09:52:27;98416.88;;;2.58;56.07
55171;BME280;41060;47.510;8.680;2023-02-15T09:55:19;98417.06;;;2.52;56.24
55171;BME280;41060;47.510;8.680;2023-02-15T09:57:53;98394.41;;;2.51;57.00
55171;BME280;41060;47.510;8.680;2023-02-15T10:00:30;98412.13;;;2.72;56.07
55171;BME280;41060;47.510;8.680;2023-02-15T10:03:13;98409.50;;;3.03;55.58
55171;BME280;41060;47.510;8.680;2023-02-15T10:05:54;98391.94;;;3.07;53.67
55171;BME280;41060;47.510;8.680;2023-02-15T10:08:40;98418.47;;;2.94;55.19
55171;BME280;41060;47.510;8.680;2023-02-15T10:11:17;98408.75;;;2.69;56.25
55171;BME280;41060;47.510;8.680;2023-02-15T10:14:22;98393.47;;;2.53;55.88
55171;BME280;41060;47.510;8.680;2023-02-15T10:17:02;98318.03;;;2.09;56.22
55171;BME280;41060;47.510;8.680;2023-02-15T10:19:40;98412.19;;;2.69;56.07
55171;BME280;41060;47.510;8.680;2023-02-15T10:22:21;98404.16;;;2.77;56.66
55171;BME280;41060;47.510;8.680;2023-02-15T10:25:06;98403.09;;;3.13;56.21
55171;BME280;41060;47.510;8.680;2023-02-15T10:27:44;98387.53;;;3.09;55.16
55171;BME280;41060;47.510;8.680;2023-02-15T10:30:13;98301.03;;;2.84;55.00
55171;BME280;41060;47.510;8.680;2023-02-15T10:32:51;98360.84;;;3.55;53.85
55171;BME280;41060;47.510;8.680;2023-02-15T10:35:26;98318.91;;;3.56;53.24
55171;BME280;41060;47.510;8.680;2023-02-15T10:38:06;98386.69;;;4.18;52.99
55171;BME280;41060;47.510;8.680;2023-02-15T10:40:40;98365.66;;;4.20;52.08
55171;BME280;41060;47.510;8.680;2023-02-15T10:43:30;98374.56;;;4.40;52.15
55171;BME280;41060;47.510;8.680;2023-02-15T10:46:11;98356.72;;;4.25;51.91
55171;BME280;41060;47.510;8.680;2023-02-15T10:51:42;98363.56;;;4.54;52.37
55171;BME280;41060;47.510;8.680;2023-02-15T10:54:22;98292.66;;;4.32;51.86
55171;BME280;41060;47.510;8.680;2023-02-15T10:57:02;98355.22;;;4.68;51.87
55171;BME280;41060;47.510;8.680;2023-02-15T10:59:42;98349.44;;;4.83;51.92
55171;BME280;41060;47.510;8.680;2023-02-15T11:02:27;98342.19;;;4.89;51.53
55171;BME280;41060;47.510;8.680;2023-02-15T11:05:07;98344.50;;;4.97;51.26
55171;BME280;41060;47.510;8.680;2023-02-15T11:07:43;98307.72;;;4.52;51.60
55171;BME280;41060;47.510;8.680;2023-02-15T11:10:22;98332.13;;;5.01;51.41
55171;BME280;41060;47.510;8.680;2023-02-15T11:12:51;98327.56;;;5.06;51.34
55171;BME280;41060;47.510;8.680;2023-02-15T11:15:25;98322.06;;;5.12;51.97
55171;BME280;41060;47.510;8.680;2023-02-15T11:17:58;98329.09;;;4.88;52.36
55171;BME280;41060;47.510;8.680;2023-02-15T11:20:29;98257.91;;;4.02;53.79
55171;BME280;41060;47.510;8.680;2023-02-15T11:22:58;98319.69;;;3.85;54.99
55171;BME280;41060;47.510;8.680;2023-02-15T11:25:29;98293.97;;;3.96;55.30
55171;BME280;41060;47.510;8.680;2023-02-15T11:27:56;98295.78;;;4.19;54.83
55171;BME280;41060;47.510;8.680;2023-02-15T11:30:28;98310.06;;;4.35;55.18
55171;BME280;41060;47.510;8.680;2023-02-15T11:33:01;98305.13;;;4.50;54.40
55171;BME280;41060;47.510;8.680;2023-02-15T11:35:36;98305.63;;;4.37;55.66
55171;BME280;41060;47.510;8.680;2023-02-15T11:38:09;98292.13;;;4.24;55.93
55171;BME280;41060;47.510;8.680;2023-02-15T11:40:44;98300.41;;;4.12;55.94
55171;BME280;41060;47.510;8.680;2023-02-15T11:43:21;98303.00;;;4.37;56.00
55171;BME280;41060;47.510;8.680;2023-02-15T11:45:52;98302.78;;;4.43;56.03
55171;BME280;41060;47.510;8.680;2023-02-15T11:48:20;98296.22;;;4.31;56.22
55171;BME280;41060;47.510;8.680;2023-02-15T11:50:47;98292.06;;;4.01;56.45
55171;BME280;41060;47.510;8.680;2023-02-15T11:53:18;98288.34;;;3.82;57.16
55171;BME280;41060;47.510;8.680;2023-02-15T11:55:48;98291.25;;;3.99;57.05
55171;BME280;41060;47.510;8.680;2023-02-15T11:58:28;98260.66;;;3.99;56.96
55171;BME280;41060;47.510;8.680;2023-02-15T12:01:01;98277.72;;;4.59;56.17
55171;BME280;41060;47.510;8.680;2023-02-15T12:03:36;98274.28;;;4.80;55.96
55171;BME280;41060;47.510;8.680;2023-02-15T12:06:15;98185.34;;;4.28;55.42
55171;BME280;41060;47.510;8.680;2023-02-15T12:08:47;98257.63;;;4.81;56.00
55171;BME280;41060;47.510;8.680;2023-02-15T12:11:19;98236.31;;;4.67;55.64
55171;BME280;41060;47.510;8.680;2023-02-15T12:13:54;98224.13;;;4.88;55.28
55171;BME280;41060;47.510;8.680;2023-02-15T12:16:24;98247.25;;;5.00;55.18
55171;BME280;41060;47.510;8.680;2023-02-15T12:18:52;98254.16;;;4.81;56.24
55171;BME280;41060;47.510;8.680;2023-02-15T12:21:26;98233.28;;;4.55;56.39
55171;BME280;41060;47.510;8.680;2023-02-15T12:23:54;98252.03;;;4.90;56.58
55171;BME280;41060;47.510;8.680;2023-02-15T12:26:26;98246.91;;;5.09;55.56
55171;BME280;41060;47.510;8.680;2023-02-15T12:28:58;98240.78;;;5.30;55.11
55171;BME280;41060;47.510;8.680;2023-02-15T12:31:32;98228.66;;;5.90;54.17
55171;BME280;41060;47.510;8.680;2023-02-15T12:34:03;98229.44;;;6.13;53.42
55171;BME280;41060;47.510;8.680;2023-02-15T12:36:41;98218.81;;;6.34;52.75
55171;BME280;41060;47.510;8.680;2023-02-15T12:39:18;98214.00;;;6.63;52.18
55171;BME280;41060;47.510;8.680;2023-02-15T12:41:55;98223.50;;;6.84;51.41
55171;BME280;41060;47.510;8.680;2023-02-15T12:44:25;98219.63;;;6.74;52.03
55171;BME280;41060;47.510;8.680;2023-02-15T12:47:00;98219.06;;;6.67;52.87
55171;BME280;41060;47.510;8.680;2023-02-15T12:49:28;98217.34;;;6.66;52.77
55171;BME280;41060;47.510;8.680;2023-02-15T12:51:56;98136.75;;;6.07;53.22
55171;BME280;41060;47.510;8.680;2023-02-15T12:54:29;98149.50;;;6.17;53.71
55171;BME280;41060;47.510;8.680;2023-02-15T12:56:59;98201.69;;;6.82;52.51
55171;BME280;41060;47.510;8.680;2023-02-15T12:59:25;98159.94;;;6.74;52.37
55171;BME280;41060;47.510;8.680;2023-02-15T13:01:52;98052.91;;;6.01;52.80
55171;BME280;41060;47.510;8.680;2023-02-15T13:04:26;98196.59;;;7.32;51.86
55171;BME280;41060;47.510;8.680;2023-02-15T13:06:57;98181.75;;;7.48;51.47
55171;BME280;41060;47.510;8.680;2023-02-15T13:09:33;98183.72;;;7.79;50.97
55171;BME280;41060;47.510;8.680;2023-02-15T13:12:10;98136.66;;;7.72;49.91
55171;BME280;41060;47.510;8.680;2023-02-15T13:14:44;98181.75;;;8.00;49.85
55171;BME280;41060;47.510;8.680;2023-02-15T13:17:13;98176.91;;;8.08;50.10
55171;BME280;41060;47.510;8.680;2023-02-15T13:19:46;98180.22;;;8.12;49.64
55171;BME280;41060;47.510;8.680;2023-02-15T13:22:16;98171.91;;;8.19;49.88
55171;BME280;41060;47.510;8.680;2023-02-15T13:24:47;98168.38;;;8.36;49.15
55171;BME280;41060;47.510;8.680;2023-02-15T13:27:16;98160.63;;;8.49;49.39
55171;BME280;41060;47.510;8.680;2023-02-15T13:29:49;98150.53;;;8.08;50.31
55171;BME280;41060;47.510;8.680;2023-02-15T13:32:24;98162.75;;;8.26;50.02
55171;BME280;41060;47.510;8.680;2023-02-15T13:34:56;98160.41;;;8.53;49.53
55171;BME280;41060;47.510;8.680;2023-02-15T13:37:36;98163.28;;;8.64;48.64
55171;BME280;41060;47.510;8.680;2023-02-15T13:40:08;98149.75;;;8.86;48.77
55171;BME280;41060;47.510;8.680;2023-02-15T13:42:44;98108.69;;;8.65;48.45